Tiempo atmosférico en la estación meteorológica de Cieza, Murcia (265 m.)



Fecha
DESCASC
Temp. máxima en grados centígrados (hora)
DESCASC
Temp. mínima en grados centígrados (hora)
DESCASC
Temp. media en grados centígrados
DESCASC
Racha de viento máxima en m/sg (hora)
DESCASC
Velocidad máxima media en intervalos de 10 minutos(hora)
DESCASC
Precipitaciones diarias en mm
DESCASC
Precipitaciones de 00:00 a 06:00 en mm
DESCASC
Precipitaciones de 06:00 a 12:00 en mm
DESCASC
Precipitaciones de 12:00 a 18:00 en mm
DESCASC
Precipitaciones de 18:00 a 24:00 en mm
DESCASC
22-11-2020 17.9 (15:40) 3.2 (08:00) 10.5 5.28 (10:40) 3.61 (11:00) 0 0 0 0 0
21-11-2020 18.4 (15:00) 7.4 (23:20) 12.9 7.78 (18:50) 4.72 (18:50) 0 0 0 0 0
20-11-2020 20.8 (16:10) 6.5 (08:10) 13.6 6.39 (18:50) 3.89 (18:20) 0 0 0 0 0
19-11-2020 22.1 (16:20) 10.4 (00:00) 16.3 5.56 (14:00) 3.61 (12:30) 0 0 0 0 0
18-11-2020 21.9 (15:40) 12 (00:00) 16.9 5.28 (17:10) 3.33 (19:00) 0 0 0 0 0
17-11-2020 23.8 (17:20) 10 (00:00) 16.9 6.39 (18:40) 3.61 (18:40) 0 0 0 0 0
16-11-2020 24.7 (14:10) 11.9 (00:00) 18.3 7.22 (15:00) 4.17 (09:00) 0 0 0 0 0
15-11-2020 25 (15:30) 10.1 (00:00) 17.6 4.72 (11:00) 3.33 (11:20) 0 0 0 0 0
14-11-2020 18.9 (15:00) 13.6 (00:00) 16.3 2.78 (17:50) 1.67 (11:50) 0.1 0 0 0.1 0
13-11-2020 22.7 (16:00) 13.1 (00:00) 17.9 6.94 (18:20) 3.89 (18:20) 0 0 0 0 0
12-11-2020 20.5 (15:00) 7.5 (00:00) 14 7.22 (18:00) 4.72 (16:10) 0 0 0 0 0
11-11-2020 20.8 (15:20) 9 (00:00) 14.9 5.83 (18:20) 3.61 (18:20) 0 0 0 0 0
10-11-2020 23 (15:20) 11 (00:00) 17 8.33 (18:00) 5 (17:50) 0 0 0 0 0
09-11-2020 23.3 (15:30) 11.8 (00:00) 17.5 5.83 (18:50) 3.61 (21:10) 0 0 0 0 0
08-11-2020 21.3 (15:00) 7.4 (00:00) 14.3 5 (03:50) 3.61 (03:50) 0 0 0 0 0
07-11-2020 23.2 (15:40) 11.9 (00:00) 17.6 11.94 (04:30) 7.22 (04:40) 1.3 0.6 0.7 0 0
06-11-2020 24.1 (14:00) 13.1 (00:00) 18.6 10.28 (14:20) 5.83 (16:00) 0 0 0 0 0
05-11-2020 20.5 (15:30) 14.5 (00:00) 17.5 16.67 (14:30) 8.89 (14:30) 9.2 0.2 8.6 0.4 0
04-11-2020 20.7 (13:10) 11.7 (00:00) 16.2 9.17 (19:50) 5 (14:30) 2 0 2 0 0
03-11-2020 21.9 (15:10) 8.7 (00:00) 15.3 8.61 (17:30) 5.28 (16:50) 0 0 0 0 0
02-11-2020 28.3 (14:50) 9 (00:00) 18.6 6.67 (16:00) 3.89 (16:50) 0 0 0 0 0
01-11-2020 29.3 (15:00) 9 (00:00) 19.1 6.39 (16:50) 4.17 (08:50) 0 0 0 0 0
31-10-2020 27.5 (15:00) 7 (00:00) 17.3 6.11 (10:30) 4.72 (10:30) 0 0 0 0 0
30-10-2020 26.2 (14:40) 8 (00:00) 17.1 7.5 (17:50) 4.44 (18:40) 0 0 0 0 0
29-10-2020 25.4 (14:30) 10.6 (00:00) 18 6.67 (17:30) 4.44 (16:50) 0 0 0 0 0
28-10-2020 25.1 (16:30) 6.9 (00:00) 16 6.39 (11:00) 3.89 (10:30) 0 0 0 0 0
27-10-2020 21.8 (16:30) 5 (00:00) 13.4 5.56 (14:40) 3.61 (22:00) 0 0 0 0 0

Gráficas

Temp. máximas Temp. mínimas Temp. medias Precipitaciones Rachas de viento máximas Velocidades máximas media en intervalos de 10 minutos

Datos horarios

Fecha y hora oficial Temperatura (ºC) Velocidad del viento (km/h) Dirección del viento Racha (km/h) Dirección de racha Precipitación (mm) Presión (hPa) Tendencia (hPa) Humedad (%)
2020-11-25 23:00:00 11.2 0 Calma 6 Sudeste 0 -- -- 83
2020-11-25 22:00:00 11.4 0 Calma 17 Sudeste 0 -- -- 83
2020-11-25 21:00:00 12.9 10 Sudeste 14 Sudeste 0 -- -- 83
2020-11-25 20:00:00 12.7 12 Sudeste 25 Sudeste 0 -- -- 81
2020-11-25 19:00:00 12.8 13 Sudeste 22 Sudeste 0 -- -- 76
2020-11-25 18:00:00 13.8 13 Sudeste 26 Sudeste 0 -- -- 67
2020-11-25 17:00:00 15.7 13 Sudeste 24 Este 0 -- -- 56
2020-11-25 16:00:00 16.4 15 Sudeste 24 Sudeste 0 -- -- 52
2020-11-25 15:00:00 16.6 13 Sudeste 21 Sudeste 0 -- -- 52
2020-11-25 14:00:00 15.1 0 Calma 10 Sudoeste 0 -- -- 61
2020-11-25 13:00:00 11.1 8 Oeste 13 Oeste 0 -- -- 76
2020-11-25 12:00:00 9.1 8 Oeste 15 Oeste 0 -- -- 84
2020-11-25 11:00:00 7.2 9 Oeste 14 Oeste 0 -- -- 89
2020-11-25 10:00:00 6 6 Oeste 12 Oeste 0 -- -- 91
2020-11-25 09:00:00 4.5 8 Oeste 12 Oeste 0 -- -- 93
2020-11-25 08:00:00 3.6 8 Oeste 14 Oeste 0 -- -- 95
2020-11-25 07:00:00 3.5 4 Oeste 15 Oeste 0 -- -- 94
2020-11-25 06:00:00 3.5 13 Oeste 18 Oeste 0 -- -- 95
2020-11-25 05:00:00 3.5 3 Oeste 11 Oeste 0 -- -- 93
2020-11-25 04:00:00 3.9 9 Oeste 13 Oeste 0 -- -- 93
2020-11-25 03:00:00 4.3 7 Oeste 11 Oeste 0 -- -- 93
2020-11-25 02:00:00 5.1 6 Oeste 12 Oeste 0 -- -- 90
2020-11-25 01:00:00 5.4 7 Oeste 10 Oeste 0 -- -- 90
2020-11-25 00:00:00 5.9 0 Calma 10 Oeste 0 -- -- 88
2020-11-24 23:00:00 6.6 5 Oeste 9 Oeste 0 -- -- 86
2020-11-24 22:00:00 6.4 3 Sudeste 5 Este 0 -- -- 84
2020-11-24 21:00:00 7.8 0 Calma 7 Sudeste 0 -- -- 81
2020-11-24 20:00:00 10.2 5 Sudeste 10 Sudeste 0 -- -- 74
2020-11-24 19:00:00 11.3 5 Sudeste 8 Sudeste 0 -- -- 68
2020-11-24 18:00:00 13.6 6 Sudeste 13 Sudeste 0 -- -- 60
2020-11-24 17:00:00 15.4 6 Sudeste 14 Sudeste 0 -- -- 55
2020-11-24 16:00:00 15.4 0 Calma 8 Sur 0 -- -- 52
2020-11-24 15:00:00 14.5 0 Calma 7 Oeste 0 -- -- 56
2020-11-24 14:00:00 12.7 0 Calma 13 Oeste 0 -- -- 65
2020-11-24 13:00:00 10.3 10 Oeste 17 Oeste 0 -- -- 72
2020-11-24 12:00:00 8.8 10 Oeste 17 Oeste 0 -- -- 78
2020-11-24 11:00:00 7.3 7 Oeste 14 Oeste 0 -- -- 83
2020-11-24 10:00:00 5.1 6 Oeste 13 Oeste 0 -- -- 90
2020-11-24 09:00:00 2.6 10 Oeste 14 Oeste 0 -- -- 94
2020-11-24 08:00:00 2.6 10 Oeste 12 Oeste 0 -- -- 95
2020-11-24 07:00:00 2.5 7 Oeste 12 Oeste 0 -- -- 95
2020-11-24 06:00:00 2.7 5 Oeste 9 Oeste 0 -- -- 94
2020-11-24 05:00:00 3.8 4 Oeste 12 Oeste 0 -- -- 94
2020-11-24 04:00:00 4.1 8 Oeste 11 Oeste 0 -- -- 94
2020-11-24 03:00:00 4.5 5 Oeste 7 Oeste 0 -- -- 93
2020-11-24 02:00:00 5.2 0 Calma 8 Oeste 0 -- -- 90
2020-11-24 01:00:00 7.1 7 Oeste 9 Oeste 0 -- -- 90
2020-11-24 00:00:00 5.9 0 Calma 10 Nordeste 0 -- -- 84
2020-11-23 23:00:00 7.5 2 Este 9 Nordeste 0 -- -- 83
2020-11-23 22:00:00 8.2 3 Este 17 Sudeste 0 -- -- 79
2020-11-23 21:00:00 11.1 10 Sudeste 17 Sudeste 0 -- -- 76
2020-11-23 20:00:00 11.6 13 Sudeste 19 Sudeste 0 -- -- 71
2020-11-23 19:00:00 12.7 13 Sudeste 20 Sudeste 0 -- -- 62
2020-11-23 18:00:00 14.4 10 Sudeste 19 Sudeste 0 -- -- 51
2020-11-23 17:00:00 15.9 9 Este 20 Este 0 -- -- 46
2020-11-23 16:00:00 16.6 11 Sudeste 20 Sudeste 0 -- -- 46
2020-11-23 15:00:00 16.8 10 Este 24 Este 0 -- -- 46
2020-11-23 14:00:00 16.7 6 Sudeste 16 Sudeste 0 -- -- 49
2020-11-23 13:00:00 13.8 0 Calma 12 Oeste 0 -- -- 56
2020-11-23 12:00:00 10.8 9 Oeste 14 Oeste 0 -- -- 58
2020-11-23 11:00:00 8.2 10 Oeste 18 Oeste 0 -- -- 67
2020-11-23 10:00:00 5.2 11 Oeste 17 Noroeste 0 -- -- 81
2020-11-23 09:00:00 3 11 Oeste 17 Oeste 0 -- -- 89
2020-11-23 08:00:00 2.5 10 Oeste 15 Oeste 0 -- -- 90
2020-11-23 07:00:00 2.6 10 Oeste 14 Oeste 0 -- -- 90
2020-11-23 06:00:00 3.4 9 Oeste 13 Oeste 0 -- -- 89
2020-11-23 05:00:00 3.3 9 Oeste 15 Oeste 0 -- -- 91
2020-11-23 04:00:00 4.4 9 Oeste 13 Oeste 0 -- -- 85
2020-11-23 03:00:00 3.8 6 Oeste 13 Oeste 0 -- -- 87
2020-11-23 02:00:00 4.8 9 Oeste 13 Oeste 0 -- -- 82
2020-11-23 01:00:00 5.5 5 Oeste 9 Oeste 0 -- -- 81
2020-11-23 00:00:00 6.1 0 Calma 5 Nordeste 0 -- -- 81
2020-11-22 23:00:00 6.9 0 Calma 4 Este 0 -- -- 77
2020-11-22 22:00:00 6.9 0 Calma 5 Este 0 -- -- 74
2020-11-22 21:00:00 7.5 0 Calma 9 Sudeste 0 -- -- 69
2020-11-22 20:00:00 9.3 2 Este 10 Sudeste 0 -- -- 62
2020-11-22 19:00:00 9.8 0 Calma 4 Este 0 -- -- 55
2020-11-22 18:00:00 13.9 5 Sudeste 12 Sudeste 0 -- -- 46
2020-11-22 17:00:00 16.3 6 Sudeste 17 Sudeste 0 -- -- 39
2020-11-22 16:00:00 17.4 4 Sudeste 13 Este 0 -- -- 45
2020-11-22 15:00:00 17.8 2 Sur 13 Oeste 0 -- -- 45
2020-11-22 14:00:00 16 3 Oeste 13 Oeste 0 -- -- 48
2020-11-22 13:00:00 14.4 6 Oeste 15 Oeste 0 -- -- 57
2020-11-22 12:00:00 12.1 10 Oeste 18 Oeste 0 -- -- 66
2020-11-22 11:00:00 9.3 13 Oeste 19 Noroeste 0 -- -- 74
2020-11-22 10:00:00 6.5 10 Oeste 17 Oeste 0 -- -- 88
2020-11-22 09:00:00 3.9 8 Oeste 11 Oeste 0 -- -- 94
2020-11-22 08:00:00 3.2 5 Oeste 7 Oeste 0 -- -- 94
2020-11-22 07:00:00 4.1 8 Oeste 12 Oeste 0 -- -- 94
2020-11-22 06:00:00 4.6 5 Oeste 15 Oeste 0 -- -- 93
2020-11-22 05:00:00 5.6 12 Oeste 15 Oeste 0 -- -- 93
2020-11-22 04:00:00 5.4 8 Oeste 10 Noroeste 0 -- -- 93
2020-11-22 03:00:00 6.4 6 Oeste 9 Oeste 0 -- -- 90
2020-11-22 02:00:00 6.7 6 Oeste 9 Oeste 0 -- -- 89
2020-11-22 01:00:00 6.4 3 Oeste 5 Oeste 0 -- -- 85
2020-11-22 00:00:00 7.8 0 Calma 5 Oeste 0 -- -- 87
2020-11-21 23:00:00 8.6 0 Calma 5 Sudeste 0 -- -- 83
2020-11-21 22:00:00 8.9 0 Calma 5 Este 0 -- -- 81
2020-11-21 21:00:00 11.3 3 Este 10 Sur 0 -- -- 76
2020-11-21 20:00:00 12.4 8 Sudeste 23 Este 0 -- -- 70
2020-11-21 19:00:00 13.6 15 Sudeste 28 Sudeste 0 -- -- 61
2020-11-21 18:00:00 14.9 10 Sudeste 17 Sudeste 0 -- -- 51
2020-11-21 17:00:00 16.8 9 Sudeste 18 Este 0 -- -- 41
2020-11-21 16:00:00 17.6 10 Sudeste 22 Sudeste 0 -- -- 39
2020-11-21 15:00:00 18.2 10 Sudeste 22 Este 0 -- -- 37
2020-11-21 14:00:00 17.9 9 Sudeste 21 Este 0 -- -- 39
2020-11-21 13:00:00 17.5 5 Sudeste 16 Sudeste 0 -- -- 42
2020-11-21 12:00:00 16.4 5 Sur 15 Sudeste 0 -- -- 52
2020-11-21 11:00:00 14 0 Calma 5 Nordeste 0 -- -- 68
2020-11-21 10:00:00 11.2 0 Calma 8 Oeste 0 -- -- 81
2020-11-21 09:00:00 9.3 5 Oeste 8 Noroeste 0 -- -- 85
2020-11-21 08:00:00 9.2 5 Oeste 9 Oeste 0 -- -- 84
2020-11-21 07:00:00 9.9 7 Oeste 10 Oeste 0 -- -- 81
2020-11-21 06:00:00 10.7 7 Oeste 12 Oeste 0 -- -- 78
2020-11-21 05:00:00 10.6 9 Oeste 12 Oeste 0 -- -- 79
2020-11-21 04:00:00 10.4 7 Oeste 11 Oeste 0 -- -- 84
2020-11-21 03:00:00 10.8 0 Calma 4 Oeste 0 -- -- 89
2020-11-21 02:00:00 10.9 3 Oeste 6 Oeste 0 -- -- 90
2020-11-21 01:00:00 9.5 0 Calma 5 Nordeste 0 -- -- 90
2020-11-21 00:00:00 10.1 0 Calma 4 Este 0 -- -- 87
2020-11-20 23:00:00 11.9 0 Calma 12 Este 0 -- -- 83
2020-11-20 22:00:00 12.9 7 Sudeste 14 Sudeste 0 -- -- 82
2020-11-20 21:00:00 13.3 8 Sudeste 18 Sudeste 0 -- -- 82
2020-11-20 20:00:00 14 12 Sudeste 20 Sudeste 0 -- -- 78
2020-11-20 19:00:00 15.1 13 Sudeste 23 Sudeste 0 -- -- 76
2020-11-20 18:00:00 16.5 11 Sudeste 23 Sudeste 0 -- -- 70
2020-11-20 17:00:00 19.2 6 Sudeste 12 Sudeste 0 -- -- 47
2020-11-20 16:00:00 20.6 2 Sudeste 15 Sudeste 0 -- -- 44
2020-11-20 15:00:00 20.5 5 Sudeste 14 Sudeste 0 -- -- 45
2020-11-20 14:00:00 20.1 4 Sudeste 14 Sudeste 0 -- -- 45
2020-11-20 13:00:00 18.7 3 Noroeste 16 Oeste 0 -- -- 49
2020-11-20 12:00:00 16.8 9 Oeste 14 Noroeste 0 -- -- 56
2020-11-20 11:00:00 14.2 8 Oeste 13 Oeste 0 -- -- 68
2020-11-20 10:00:00 10.9 0 Calma 8 Noroeste 0 -- -- 81
2020-11-20 09:00:00 8.1 4 Oeste 9 Oeste 0 -- -- 90
2020-11-20 08:00:00 6.6 0 Calma 11 Oeste 0 -- -- 90
2020-11-20 07:00:00 7.7 5 Oeste 13 Oeste 0 -- -- 91
2020-11-20 06:00:00 8 8 Oeste 12 Oeste 0 -- -- 89
2020-11-20 05:00:00 7.5 0 Calma 10 Oeste 0 -- -- 90
2020-11-20 04:00:00 8.5 0 Calma 10 Oeste 0 -- -- 89
2020-11-20 03:00:00 8.8 0 Calma 7 Oeste 0 -- -- 91
2020-11-20 02:00:00 9.4 3 Oeste 6 Oeste 0 -- -- 91
2020-11-20 01:00:00 9.2 0 Calma -- -- 0 -- -- 89
2020-11-20 00:00:00 10.6 0 Calma 9 Oeste 0 -- -- 87
2020-11-19 23:00:00 12.1 4 Oeste 8 Oeste 0 -- -- 87
2020-11-19 22:00:00 12.3 0 Calma 4 Este 0 -- -- 83
2020-11-19 21:00:00 13.6 0 Calma 9 Sudeste 0 -- -- 82
2020-11-19 20:00:00 15.3 6 Sudeste 14 Sudeste 0 -- -- 72
2020-11-19 19:00:00 16.1 8 Sudeste 14 Sudeste 0 -- -- 66
2020-11-19 18:00:00 17.9 5 Sudeste 10 Sudeste 0 -- -- 59
2020-11-19 17:00:00 20.6 8 Oeste 14 Oeste 0 -- -- 48
2020-11-19 16:00:00 21.7 2 Sudoeste 13 Oeste 0 -- -- 46
2020-11-19 15:00:00 20.2 9 Oeste 19 Oeste 0 -- -- 51
2020-11-19 14:00:00 19 12 Oeste 20 Noroeste 0 -- -- 57
2020-11-19 13:00:00 17.8 12 Oeste 19 Oeste 0 -- -- 65
2020-11-19 12:00:00 15.4 10 Oeste 17 Oeste 0 -- -- 74
2020-11-19 11:00:00 13.1 10 Oeste 18 Oeste 0 -- -- 84
2020-11-19 10:00:00 11.8 11 Oeste 15 Oeste 0 -- -- 89
2020-11-19 09:00:00 11.5 9 Oeste 17 Oeste 0 -- -- 90
2020-11-19 08:00:00 11.6 6 Oeste 13 Noroeste 0 -- -- 92
2020-11-19 07:00:00 11.6 0 Calma 9 Oeste 0 -- -- 90
2020-11-19 06:00:00 11.7 0 Calma 6 Oeste 0 -- -- 90
2020-11-19 05:00:00 11.5 0 Calma -- -- 0 -- -- 92
2020-11-19 04:00:00 11.1 0 Calma 8 Oeste 0 -- -- 92
2020-11-19 03:00:00 11 5 Oeste 10 Oeste 0 -- -- 93
2020-11-19 02:00:00 10.7 0 Calma 11 Oeste 0 -- -- 92
2020-11-19 01:00:00 11.6 3 Oeste 7 Oeste 0 -- -- 90
2020-11-19 00:00:00 12.6 0 Calma 6 Nordeste 0 -- -- 89
2020-11-18 23:00:00 13.1 0 Calma 8 Nordeste 0 -- -- 88
2020-11-18 22:00:00 13.3 0 Calma 8 Sudeste 0 -- -- 89
2020-11-18 21:00:00 15.5 6 Sudeste 13 Sudeste 0 -- -- 88
2020-11-18 20:00:00 16.3 10 Sudeste 17 Sudeste 0 -- -- 83
2020-11-18 19:00:00 17.4 12 Sudeste 17 Sudeste 0 -- -- 72
2020-11-18 18:00:00 19 9 Sudeste 19 Sudeste 0 -- -- 56
2020-11-18 17:00:00 20.3 8 Sudeste 17 Sudeste 0 -- -- 52
2020-11-18 16:00:00 21.3 8 Sudeste 16 Este 0 -- -- 51
2020-11-18 15:00:00 21.4 6 Sudeste 14 Este 0 -- -- 51
2020-11-18 14:00:00 21 2 Este 12 Sudeste 0 -- -- 52
2020-11-18 13:00:00 20 3 Este 13 Sudeste 0 -- -- 57
2020-11-18 12:00:00 17.8 0 Calma -- -- -- -- -- 65
2020-11-18 11:00:00 -- 3 Oeste 13 Oeste 0.1 -- -- --
2020-11-18 10:00:00 13 3 Oeste 13 Oeste 0 -- -- 86
2020-11-18 09:00:00 12.4 8 Oeste 12 Oeste 0 -- -- 90
2020-11-18 08:00:00 12.1 6 Oeste 13 Oeste 0 -- -- 93
2020-11-18 07:00:00 12.7 5 Oeste 13 Oeste 0 -- -- 94
2020-11-18 06:00:00 12.9 8 Oeste 12 Oeste 0 -- -- 93
2020-11-18 05:00:00 13.2 6 Oeste 11 Oeste 0 -- -- 92
2020-11-18 04:00:00 14.1 0 Calma -- -- 0 -- -- 92
2020-11-18 03:00:00 13.9 0 Calma 13 Oeste 0 -- -- 92
2020-11-18 02:00:00 13.3 6 Oeste 12 Oeste 0 -- -- 92
2020-11-18 01:00:00 13.1 0 Calma 3 Nordeste 0 -- -- 92
2020-11-18 00:00:00 13.7 0 Calma 6 Este 0 -- -- 88
2020-11-17 23:00:00 14.3 0 Calma 7 Nordeste 0 -- -- 88
2020-11-17 22:00:00 14.9 0 Calma 12 Sur 0 -- -- 88
2020-11-17 21:00:00 16.2 10 Sudeste 15 Sudeste 0 -- -- 87
2020-11-17 20:00:00 16.8 9 Sudeste 18 Sudeste 0 -- -- 82
2020-11-17 19:00:00 18 12 Sudeste 23 Sudeste 0 -- -- 76
2020-11-17 18:00:00 19.7 5 Sudeste 7 Sudeste 0 -- -- 51
2020-11-17 17:00:00 23.6 0 Calma 9 Norte 0 -- -- 42
2020-11-17 16:00:00 23.3 0 Calma 14 Oeste 0 -- -- 44
2020-11-17 15:00:00 23 3 Oeste 11 Oeste 0 -- -- 46
2020-11-17 14:00:00 21.4 6 Oeste 12 Oeste 0 -- -- 52
2020-11-17 13:00:00 19.8 6 Oeste 12 Oeste 0 -- -- 58
2020-11-17 12:00:00 17.7 6 Oeste 13 Oeste 0 -- -- 70
2020-11-17 11:00:00 15.2 10 Oeste 16 Oeste 0 -- -- 77
2020-11-17 10:00:00 13.5 10 Oeste 14 Oeste 0 -- -- 84
2020-11-17 09:00:00 11.5 6 Oeste 9 Oeste 0 -- -- 92
2020-11-17 08:00:00 11 8 Oeste 10 Noroeste 0 -- -- 93
2020-11-17 07:00:00 10.7 0 Calma 12 Oeste 0 -- -- 93
2020-11-17 06:00:00 11.6 5 Oeste 9 Oeste 0 -- -- 90
2020-11-17 05:00:00 12.5 5 Oeste 10 Noroeste 0 -- -- 90
2020-11-17 04:00:00 12.4 8 Oeste 10 Oeste 0 -- -- 90
2020-11-17 03:00:00 12.3 2 Oeste 7 Este 0 -- -- 90
2020-11-17 02:00:00 13 0 Calma 5 Sudeste 0 -- -- 88
2020-11-17 01:00:00 13.9 0 Calma 5 Sudeste 0 -- -- 86
2020-11-17 00:00:00 14.9 0 Calma 5 Sur 0 -- -- 80
2020-11-16 23:00:00 16.3 0 Calma 7 Sur 0 -- -- 73
2020-11-16 22:00:00 17.3 4 Sudeste 8 Sur 0 -- -- 71
2020-11-16 21:00:00 17.6 5 Sur 10 Sudeste 0 -- -- 72
2020-11-16 20:00:00 17.5 0 Calma 15 Sudeste 0 -- -- 71
2020-11-16 19:00:00 18.9 10 Sudeste 20 Sudeste 0 -- -- 63
2020-11-16 18:00:00 21.5 6 Norte 13 Norte 0 -- -- 50
2020-11-16 17:00:00 23.3 5 Norte 21 Norte 0 -- -- 46
2020-11-16 16:00:00 23.8 7 Norte 26 Norte 0 -- -- 46
2020-11-16 15:00:00 23.6 14 Norte 26 Norte 0 -- -- 47
2020-11-16 14:00:00 24.5 4 Noroeste 21 Norte 0 -- -- 47
2020-11-16 13:00:00 22.5 9 Norte 22 Norte 0 -- -- 54
2020-11-16 12:00:00 19.3 11 Oeste 18 Oeste 0 -- -- 61
2020-11-16 11:00:00 18.1 10 Oeste 18 Oeste 0 -- -- 65
2020-11-16 10:00:00 15 11 Oeste 20 Oeste 0 -- -- 77
2020-11-16 09:00:00 13.2 15 Oeste 21 Oeste 0 -- -- 83
2020-11-16 08:00:00 12.2 4 Oeste 14 Oeste 0 -- -- 88
2020-11-16 07:00:00 12.5 12 Oeste 16 Oeste 0 -- -- 88
2020-11-16 06:00:00 12.7 10 Oeste 14 Oeste 0 -- -- 88
2020-11-16 05:00:00 12.3 3 Oeste 15 Oeste 0 -- -- 85
2020-11-16 04:00:00 13 2 Noroeste 13 Oeste 0 -- -- 83
2020-11-16 03:00:00 14.1 9 Oeste 12 Oeste 0 -- -- 78
2020-11-16 02:00:00 13.5 0 Calma 8 Oeste 0 -- -- 80
2020-11-16 01:00:00 13.9 0 Calma 6 Oeste 0 -- -- 77
2020-11-16 00:00:00 14.2 0 Calma 8 Noroeste 0 -- -- 77
2020-11-15 23:00:00 13.8 0 Calma 8 Oeste 0 -- -- 76
2020-11-15 22:00:00 15.7 5 Oeste 8 Oeste 0 -- -- 73
2020-11-15 21:00:00 15.6 0 Calma 10 Sudeste 0 -- -- 70
2020-11-15 20:00:00 17.8 6 Sudeste 12 Sudeste 0 -- -- 61
2020-11-15 19:00:00 19 8 Sudeste 11 Sudeste 0 -- -- 51
2020-11-15 18:00:00 21.3 7 Sudeste 13 Sudeste 0 -- -- 45
2020-11-15 17:00:00 23.3 8 Sudeste 13 Sudeste 0 -- -- 41
2020-11-15 16:00:00 24.6 6 Sudeste 10 Sudeste 0 -- -- 39
2020-11-15 15:00:00 24.3 3 Sudoeste 9 Sudoeste 0 -- -- 39
2020-11-15 14:00:00 22.8 2 Noroeste 11 Oeste 0 -- -- 42
2020-11-15 13:00:00 21.2 4 Noroeste 14 Oeste 0 -- -- 49
2020-11-15 12:00:00 18.6 9 Oeste 16 Oeste 0 -- -- 57
2020-11-15 11:00:00 16.5 11 Oeste 17 Noroeste 0 -- -- 67
2020-11-15 10:00:00 13.5 7 Oeste 14 Oeste 0 -- -- 85
2020-11-15 09:00:00 10.7 7 Oeste 15 Oeste 0 -- -- 95
2020-11-15 08:00:00 10.5 0 Calma 6 Noroeste 0 -- -- 95
2020-11-15 07:00:00 11.7 6 Oeste 13 Oeste 0 -- -- 95
2020-11-15 06:00:00 12 12 Oeste 14 Oeste 0 -- -- 95
2020-11-15 05:00:00 12.7 2 Oeste 7 Oeste 0 -- -- 94
2020-11-15 04:00:00 13.3 6 Oeste 11 Oeste 0 -- -- 94
2020-11-15 03:00:00 13.3 6 Oeste 10 Oeste 0 -- -- 94
2020-11-15 02:00:00 14.1 5 Oeste 6 Oeste 0 -- -- 93
2020-11-15 01:00:00 14.3 0 Calma 7 Oeste 0 -- -- 90
2020-11-15 00:00:00 15.2 0 Calma 7 Sudeste 0 -- -- 90
2020-11-14 23:00:00 15.7 0 Calma 6 Sudeste 0 -- -- 89
2020-11-14 22:00:00 16.3 2 Sudeste 6 Sudeste 0 -- -- 85
2020-11-14 21:00:00 16.6 0 Calma 10 Sudeste 0 -- -- 83
2020-11-14 20:00:00 16.6 4 Sudeste 8 Sudeste 0 -- -- 83
2020-11-14 19:00:00 17 0 Calma 9 Sudeste 0 -- -- 80
2020-11-14 18:00:00 17.9 5 Sudeste 10 Sudeste 0 -- -- 75
2020-11-14 17:00:00 18.5 3 Sudeste 8 Este 0 -- -- 71
2020-11-14 16:00:00 18.7 3 Sudeste 8 Sudeste 0 -- -- 71
2020-11-14 15:00:00 18.8 2 Sudeste 7 Este 0 -- -- 70
2020-11-14 14:00:00 17.8 0 Calma 6 Nordeste 0 -- -- 78
2020-11-14 13:00:00 16.8 3 Oeste 9 Oeste 0.1 -- -- 83
2020-11-14 12:00:00 16.1 6 Oeste 9 Oeste 0 -- -- 83
2020-11-14 11:00:00 15.2 0 Calma -- -- 0 -- -- 87
2020-11-14 10:00:00 14.7 0 Calma 4 Oeste 0 -- -- 88
2020-11-14 09:00:00 14.2 0 Calma -- -- 0 -- -- 89
2020-11-14 08:00:00 14 0 Calma -- -- 0 -- -- 89
2020-11-14 07:00:00 13.9 0 Calma -- -- 0 -- -- 88
2020-11-14 06:00:00 13.9 0 Calma 5 Noroeste 0 -- -- 88
2020-11-14 05:00:00 14.1 2 Oeste 6 Oeste 0 -- -- 89
2020-11-14 04:00:00 13.6 0 Calma 4 Oeste 0 -- -- 89
2020-11-14 03:00:00 13.8 0 Calma 5 Nordeste 0 -- -- 87
2020-11-14 02:00:00 14.1 0 Calma 4 Nordeste 0 -- -- 85
2020-11-14 01:00:00 14.5 0 Calma 8 Sudeste 0 -- -- 86
2020-11-14 00:00:00 16 4 Sudeste 14 Sudeste 0 -- -- 87
2020-11-13 23:00:00 15.8 8 Sudeste 16 Sudeste 0 -- -- 86
2020-11-13 22:00:00 16.2 12 Sudeste 18 Sudeste 0 -- -- 84
2020-11-13 21:00:00 16.1 10 Sudeste 21 Sudeste 0 -- -- 83
2020-11-13 20:00:00 16.5 13 Sudeste 21 Sudeste 0 -- -- 78
2020-11-13 19:00:00 17.2 12 Sudeste 25 Sudeste 0 -- -- 70
2020-11-13 18:00:00 19 8 Sudeste 15 Sudeste 0 -- -- 54
2020-11-13 17:00:00 20.8 9 Sudeste 18 Sudeste 0 -- -- 50
2020-11-13 16:00:00 22.2 3 Sudeste 13 Sudeste 0 -- -- 47
2020-11-13 15:00:00 21.6 2 Oeste 9 Oeste 0 -- -- 49
2020-11-13 14:00:00 21.3 4 Oeste 12 Oeste 0 -- -- 52
2020-11-13 13:00:00 20.1 5 Oeste 14 Oeste 0 -- -- 56
2020-11-13 12:00:00 18.2 9 Oeste 18 Oeste 0 -- -- 61
2020-11-13 11:00:00 17 10 Oeste 17 Oeste 0 -- -- 66
2020-11-13 10:00:00 14.9 5 Noroeste 13 Sudoeste 0 -- -- 73
2020-11-13 09:00:00 13.8 10 Oeste 14 Oeste 0 -- -- 77
2020-11-13 08:00:00 13.6 8 Oeste 16 Oeste 0 -- -- 77
2020-11-13 07:00:00 13.6 10 Oeste 14 Noroeste 0 -- -- 77
2020-11-13 06:00:00 13.7 10 Oeste 14 Oeste 0 -- -- 75
2020-11-13 05:00:00 13.3 9 Oeste 13 Noroeste 0 -- -- 78
2020-11-13 04:00:00 13.2 7 Oeste 13 Oeste 0 -- -- 78
2020-11-13 03:00:00 13.2 9 Oeste 13 Oeste 0 -- -- 77
2020-11-13 02:00:00 13.2 8 Oeste 13 Oeste 0 -- -- 76
2020-11-13 01:00:00 13.6 3 Oeste 11 Noroeste 0 -- -- 75
2020-11-13 00:00:00 13.9 0 Calma 7 Oeste 0 -- -- 75
2020-11-12 23:00:00 14.2 0 Calma 8 Nordeste 0 -- -- 67
2020-11-12 22:00:00 14 0 Calma 5 Este 0 -- -- 68
2020-11-12 21:00:00 13.9 0 Calma 8 Este 0 -- -- 78
2020-11-12 20:00:00 14 2 Este 16 Este 0 -- -- 71
2020-11-12 19:00:00 15.9 9 Sudeste 21 Sudeste 0 -- -- 57
2020-11-12 18:00:00 16.7 14 Sudeste 26 Sudeste 0 -- -- 51
2020-11-12 17:00:00 18.2 16 Sudeste 25 Sudeste 0 -- -- 45
2020-11-12 16:00:00 19.5 13 Sudeste 25 Sudeste 0 -- -- 39
2020-11-12 15:00:00 19.8 10 Sudeste 19 Sudeste 0 -- -- 37
2020-11-12 14:00:00 19.9 5 Sudeste 16 Sudeste 0 -- -- 40
2020-11-12 13:00:00 16.9 5 Oeste 14 Oeste 0 -- -- 53
2020-11-12 12:00:00 14.7 9 Oeste 17 Oeste 0 -- -- 66
2020-11-12 11:00:00 12 13 Oeste 17 Noroeste 0 -- -- 77
2020-11-12 10:00:00 9.5 11 Oeste 17 Oeste 0 -- -- 93
2020-11-12 09:00:00 8.9 5 Oeste 13 Oeste 0 -- -- 94
2020-11-12 08:00:00 8.8 7 Oeste 12 Oeste 0 -- -- 91
2020-11-12 07:00:00 8.9 6 Oeste 9 Oeste 0 -- -- 93
2020-11-12 06:00:00 9 6 Oeste 11 Oeste 0 -- -- 95
2020-11-12 05:00:00 8.1 10 Oeste 15 Oeste 0 -- -- 95
2020-11-12 04:00:00 8.1 3 Oeste 9 Oeste 0 -- -- 94
2020-11-12 03:00:00 8.4 0 Calma 4 Oeste 0 -- -- 93
2020-11-12 02:00:00 9.6 5 Oeste 6 Oeste 0 -- -- 91
2020-11-12 01:00:00 10.8 0 Calma -- -- 0 -- -- 92
2020-11-12 00:00:00 10.2 0 Calma 4 Este 0 -- -- 90
2020-11-11 23:00:00 10.9 0 Calma 4 Este 0 -- -- 88
2020-11-11 22:00:00 11.6 0 Calma 6 Este 0 -- -- 86
2020-11-11 21:00:00 13.1 3 Este 13 Sudeste 0 -- -- 84
2020-11-11 20:00:00 14.5 9 Sudeste 17 Sudeste 0 -- -- 78
2020-11-11 19:00:00 15.5 9 Sudeste 21 Sudeste 0 -- -- 72
2020-11-11 18:00:00 17.2 10 Sudeste 21 Sudeste 0 -- -- 54
2020-11-11 17:00:00 19.2 6 Este 16 Sudeste 0 -- -- 47
2020-11-11 16:00:00 20.1 6 Este 15 Este 0 -- -- 46
2020-11-11 15:00:00 20.2 5 Sudeste 15 Sudeste 0 -- -- 46
2020-11-11 14:00:00 19.5 7 Sudeste 19 Sudeste 0 -- -- 50
2020-11-11 13:00:00 18 8 Sudeste 16 Este 0 -- -- 57
2020-11-11 12:00:00 17 3 Oeste 12 Oeste 0 -- -- 63
2020-11-11 11:00:00 14.8 7 Oeste 13 Oeste 0 -- -- 75
2020-11-11 10:00:00 12.6 4 Oeste 7 Oeste 0 -- -- 85
2020-11-11 09:00:00 11.4 0 Calma 5 Oeste 0 -- -- 91
2020-11-11 08:00:00 9.4 0 Calma 7 Oeste 0 -- -- 94
2020-11-11 07:00:00 9.9 6 Oeste 10 Oeste 0 -- -- 94
2020-11-11 06:00:00 10.1 5 Oeste 9 Oeste 0 -- -- 95
2020-11-11 05:00:00 10.9 6 Oeste 10 Oeste 0 -- -- 94
2020-11-11 04:00:00 11.1 0 Calma 6 Oeste 0 -- -- 94
2020-11-11 03:00:00 10.7 0 Calma 4 Nordeste 0 -- -- 90
2020-11-11 02:00:00 12.2 0 Calma 4 Oeste 0 -- -- 90
2020-11-11 01:00:00 13.2 0 Calma 12 Nordeste 0 -- -- 88
2020-11-11 00:00:00 11.8 0 Calma 5 Este 0 -- -- 92
2020-11-10 23:00:00 12.3 0 Calma 3 Sudeste 0 -- -- 90
2020-11-10 22:00:00 14 0 Calma 15 Sudeste 0 -- -- 88
2020-11-10 21:00:00 15.2 8 Sudeste 18 Sudeste 0 -- -- 87
2020-11-10 20:00:00 15.9 12 Sudeste 19 Sudeste 0 -- -- 77
2020-11-10 19:00:00 16.3 11 Sudeste 26 Sudeste 0 -- -- 76
2020-11-10 18:00:00 18 17 Sudeste 30 Sudeste 0 -- -- 66
2020-11-10 17:00:00 20.8 4 Sudoeste 9 Oeste 0 -- -- 41
2020-11-10 16:00:00 22.4 7 Sudoeste 13 Oeste 0 -- -- 39
2020-11-10 15:00:00 22.5 3 Oeste 11 Oeste 0 -- -- 39
2020-11-10 14:00:00 21.4 7 Oeste 15 Oeste 0 -- -- 42
2020-11-10 13:00:00 20.1 8 Oeste 20 Oeste 0 -- -- 51
2020-11-10 12:00:00 17.9 11 Oeste 19 Oeste 0 -- -- 58
2020-11-10 11:00:00 16.5 10 Oeste 19 Oeste 0 -- -- 66
2020-11-10 10:00:00 14.6 11 Oeste 21 Oeste 0 -- -- 74
2020-11-10 09:00:00 12.3 14 Oeste 18 Oeste 0 -- -- 85
2020-11-10 08:00:00 11.5 10 Oeste 16 Sudoeste 0 -- -- 88
2020-11-10 07:00:00 11.5 7 Oeste 16 Oeste 0 -- -- 89
2020-11-10 06:00:00 11.2 12 Oeste 15 Oeste 0 -- -- 92
2020-11-10 05:00:00 11.6 11 Oeste 15 Oeste 0 -- -- 90
2020-11-10 04:00:00 12.2 13 Oeste 18 Oeste 0 -- -- 89
2020-11-10 03:00:00 12.5 9 Oeste 15 Oeste 0 -- -- 89
2020-11-10 02:00:00 13 10 Oeste 14 Oeste 0 -- -- 88
2020-11-10 01:00:00 13.4 9 Oeste 13 Oeste 0 -- -- 87
2020-11-10 00:00:00 14 9 Oeste 14 Oeste 0 -- -- 84
2020-11-09 23:00:00 15 9 Oeste 14 Oeste 0 -- -- 78
2020-11-09 22:00:00 16 9 Oeste 19 Oeste 0 -- -- 72
2020-11-09 21:00:00 16.2 9 Oeste 15 Oeste 0 -- -- 68
2020-11-09 20:00:00 17.1 0 Calma 14 Sudeste 0 -- -- 67
2020-11-09 19:00:00 18.5 9 Sudeste 21 Este 0 -- -- 56
2020-11-09 18:00:00 19.5 4 Oeste 8 Noroeste 0 -- -- 44
2020-11-09 17:00:00 22.7 4 Oeste 13 Oeste 0 -- -- 39
2020-11-09 16:00:00 23 6 Oeste 17 Oeste 0 -- -- 39
2020-11-09 15:00:00 22.6 5 Oeste 17 Oeste 0 -- -- 40
2020-11-09 14:00:00 21.4 7 Oeste 13 Oeste 0 -- -- 45
2020-11-09 13:00:00 19.6 7 Oeste 18 Noroeste 0 -- -- 55
2020-11-09 12:00:00 17.5 8 Oeste 18 Oeste 0 -- -- 61
2020-11-09 11:00:00 15.3 10 Oeste 18 Noroeste 0 -- -- 70
2020-11-09 10:00:00 13.6 9 Oeste 16 Noroeste 0 -- -- 79
2020-11-09 09:00:00 11.9 5 Noroeste 17 Oeste 0 -- -- 87
2020-11-09 08:00:00 12.4 5 Oeste 12 Oeste 0 -- -- 90
2020-11-09 07:00:00 12.4 6 Oeste 13 Oeste 0 -- -- 90
2020-11-09 06:00:00 12.3 3 Oeste 9 Oeste 0 -- -- 90
2020-11-09 05:00:00 12.4 0 Calma 5 Oeste 0 -- -- 92
2020-11-09 04:00:00 12.2 3 Oeste 9 Oeste 0 -- -- 93
2020-11-09 03:00:00 12.6 0 Calma 6 Oeste 0 -- -- 92
2020-11-09 02:00:00 12.8 2 Oeste 9 Oeste 0 -- -- 92
2020-11-09 01:00:00 12.8 7 Oeste 10 Oeste 0 -- -- 92
2020-11-09 00:00:00 13.4 0 Calma 4 Nordeste 0 -- -- 90
2020-11-08 23:00:00 12.8 0 Calma 5 Este 0 -- -- 93
2020-11-08 22:00:00 13 0 Calma 3 Sudeste 0 -- -- 92
2020-11-08 21:00:00 14.1 0 Calma 9 Sudeste 0 -- -- 89
2020-11-08 20:00:00 15.6 4 Sudeste 13 Sur 0 -- -- 84
2020-11-08 19:00:00 16.8 8 Sudeste 17 Sudeste 0 -- -- 77
2020-11-08 18:00:00 18.1 8 Sudeste 16 Sudeste 0 -- -- 60
2020-11-08 17:00:00 19.8 9 Sudeste 14 Sudeste 0 -- -- 51
2020-11-08 16:00:00 20.2 10 Sudeste 18 Sudeste 0 -- -- 49
2020-11-08 15:00:00 21.3 6 Sudeste 16 Sudeste 0 -- -- 47
2020-11-08 14:00:00 19.7 4 Nordeste 9 Oeste 0 -- -- 52
2020-11-08 13:00:00 17.8 5 Oeste 16 Oeste 0 -- -- 58
2020-11-08 12:00:00 15.8 12 Oeste 17 Oeste 0 -- -- 63
2020-11-08 11:00:00 13.3 11 Oeste 17 Oeste 0 -- -- 71
2020-11-08 10:00:00 11.1 10 Oeste 17 Oeste 0 -- -- 79
2020-11-08 09:00:00 8.2 11 Oeste 16 Oeste 0 -- -- 90
2020-11-08 08:00:00 7.6 13 Oeste 17 Oeste 0 -- -- 91
2020-11-08 07:00:00 7.8 12 Oeste 15 Oeste 0 -- -- 91
2020-11-08 06:00:00 8.3 2 Noroeste 14 Oeste 0 -- -- 88
2020-11-08 05:00:00 9.4 11 Oeste 18 Noroeste 0 -- -- 85
2020-11-08 04:00:00 9.9 12 Oeste 18 Oeste 0 -- -- 84
2020-11-08 03:00:00 10.3 10 Oeste 15 Oeste 0 -- -- 82
2020-11-08 02:00:00 10.7 8 Oeste 15 Oeste 0 -- -- 81
2020-11-08 01:00:00 11.5 8 Oeste 13 Oeste 0 -- -- 77
2020-11-08 00:00:00 11.9 10 Oeste 13 Oeste 0 -- -- 76
2020-11-07 23:00:00 13.2 9 Oeste 11 Oeste 0 -- -- 68
2020-11-07 22:00:00 13.7 3 Oeste 10 Oeste 0 -- -- 63
2020-11-07 21:00:00 14.8 4 Oeste 8 Oeste 0 -- -- 60
2020-11-07 20:00:00 15.4 3 Oeste 6 Oeste 0 -- -- 55
2020-11-07 19:00:00 16.7 3 Oeste 10 Norte 0 -- -- 54
2020-11-07 18:00:00 19 3 Noroeste 12 Norte 0 -- -- 49
2020-11-07 17:00:00 20.6 0 Calma 17 Oeste 0 -- -- 49
2020-11-07 16:00:00 22.2 4 Noroeste 17 Oeste 0 -- -- 45
2020-11-07 15:00:00 22.1 4 Oeste 12 Oeste 0 -- -- 49
2020-11-07 14:00:00 22.2 3 Este 18 Sudeste 0 -- -- 53
2020-11-07 13:00:00 20.5 10 Sudeste 23 Sudeste 0 -- -- 56
2020-11-07 12:00:00 20.1 8 Sudeste 14 Sudeste 0 -- -- 57
2020-11-07 11:00:00 17.6 0 Calma 9 Noroeste 0 -- -- 73
2020-11-07 10:00:00 15.7 2 Oeste 10 Sudoeste 0 -- -- 83
2020-11-07 09:00:00 13.1 7 Oeste 11 Noroeste 0 -- -- 93
2020-11-07 08:00:00 13.1 0 Calma 10 Sudeste 0 -- -- 90
2020-11-07 07:00:00 13.5 7 Sudeste 13 Este 0.7 -- -- 88
2020-11-07 06:00:00 13.9 3 Este 17 Noroeste 0.5 -- -- 87
2020-11-07 05:00:00 14.9 10 Oeste 43 Oeste 0.1 -- -- 84
2020-11-07 04:00:00 17 6 Oeste 18 Noroeste 0 -- -- 80
2020-11-07 03:00:00 16.7 11 Oeste 20 Oeste 0 -- -- 81
2020-11-07 02:00:00 17.4 11 Oeste 19 Oeste 0 -- -- 77
2020-11-07 01:00:00 17.8 11 Oeste 19 Noroeste 0 -- -- 75
2020-11-07 00:00:00 17.6 11 Oeste 17 Oeste 0 -- -- 77
2020-11-06 23:00:00 17.7 6 Oeste 9 Oeste 0 -- -- 76
2020-11-06 22:00:00 17.5 5 Oeste 12 Oeste 0 -- -- 75
2020-11-06 21:00:00 17.9 8 Oeste 15 Oeste 0 -- -- 67
2020-11-06 20:00:00 19.1 0 Calma 6 Oeste 0 -- -- 59
2020-11-06 19:00:00 19.5 0 Calma 17 Sudeste 0 -- -- 57
2020-11-06 18:00:00 20.9 13 Sudeste 24 Sudeste 0 -- -- 54
2020-11-06 17:00:00 21.6 16 Sudeste 33 Sudeste 0 -- -- 52
2020-11-06 16:00:00 22.5 21 Sudeste 33 Sudeste 0 -- -- 50
2020-11-06 15:00:00 22.8 15 Sudeste 37 Sudeste 0 -- -- 50
2020-11-06 14:00:00 23.8 15 Sudeste 30 Sudeste 0 -- -- 49
2020-11-06 13:00:00 20.9 2 Norte 12 Oeste 0 -- -- 63
2020-11-06 12:00:00 18.8 8 Oeste 15 Oeste 0 -- -- 72
2020-11-06 11:00:00 17.3 7 Oeste 15 Noroeste 0 -- -- 78
2020-11-06 10:00:00 15.1 10 Oeste 15 Oeste 0 -- -- 86
2020-11-06 09:00:00 13.7 10 Oeste 14 Noroeste 0 -- -- 89
2020-11-06 08:00:00 13.4 10 Oeste 13 Oeste 0 -- -- 92
2020-11-06 07:00:00 13.2 6 Oeste 14 Noroeste 0 -- -- 92
2020-11-06 06:00:00 13.2 12 Oeste 18 Oeste 0 -- -- 92
2020-11-06 05:00:00 13.5 9 Oeste 14 Noroeste 0 -- -- 92
2020-11-06 04:00:00 13.4 6 Oeste 18 Oeste 0 -- -- 90
2020-11-06 03:00:00 13.9 9 Oeste 14 Oeste 0 -- -- 87
2020-11-06 02:00:00 14.4 10 Oeste 17 Noroeste 0 -- -- 86
2020-11-06 01:00:00 14.2 10 Oeste 17 Oeste 0 -- -- 90
2020-11-06 00:00:00 14.5 0 Calma 15 Oeste 0 -- -- 88
2020-11-05 23:00:00 15.1 12 Oeste 19 Oeste 0 -- -- 84
2020-11-05 22:00:00 15.1 15 Oeste 20 Oeste 0 -- -- 83
2020-11-05 21:00:00 16.4 0 Calma 7 Sudoeste 0 -- -- 76
2020-11-05 20:00:00 17.1 0 Calma 22 Sudeste 0 -- -- 73
2020-11-05 19:00:00 18.1 12 Sudeste 21 Sudeste 0 -- -- 68
2020-11-05 18:00:00 18.3 10 Sudeste 25 Sudeste 0 -- -- 72
2020-11-05 17:00:00 18.9 14 Sudeste 31 Este 0 -- -- 73
2020-11-05 16:00:00 19.3 15 Este 40 Sudeste 0 -- -- 72
2020-11-05 15:00:00 19.6 23 Sudeste 60 Sudeste 0 -- -- 71
2020-11-05 14:00:00 19.6 29 Sudeste 48 Sudeste 0 -- -- 72
2020-11-05 13:00:00 18.8 17 Este 43 Este 0.4 -- -- 77
2020-11-05 12:00:00 19 24 Sudeste 49 Este 0 -- -- 72
2020-11-05 11:00:00 18.1 22 Sudeste 35 Sudeste 0.4 -- -- 75
2020-11-05 10:00:00 17 10 Este 35 Sudeste 0.3 -- -- 84
2020-11-05 09:00:00 16.4 8 Este 42 Este 7.1 -- -- 90
2020-11-05 08:00:00 16.7 25 Sudeste 45 Sudeste 0.5 -- -- 83
2020-11-05 07:00:00 17.7 18 Sudeste 43 Este 0.3 -- -- 73
2020-11-05 06:00:00 17.7 21 Este 38 Este 0 -- -- 72
2020-11-05 05:00:00 15.9 9 Nordeste 23 Nordeste 0 -- -- 72
2020-11-05 04:00:00 15.6 8 Este 21 Sudeste 0 -- -- 72
2020-11-05 03:00:00 15.4 8 Nordeste 23 Nordeste 0.2 -- -- 75
2020-11-05 02:00:00 14.6 13 Norte 25 Nordeste 0 -- -- 72
2020-11-05 01:00:00 14.8 6 Norte 21 Norte 0 -- -- 68
2020-11-05 00:00:00 15.3 6 Nordeste 28 Nordeste 0 -- -- 67
2020-11-04 23:00:00 15 8 Nordeste 29 Nordeste 0 -- -- 67
2020-11-04 22:00:00 15.4 10 Nordeste 28 Norte 0 -- -- 65
2020-11-04 21:00:00 15.4 15 Nordeste 29 Norte 0 -- -- 65
2020-11-04 20:00:00 15 16 Nordeste 33 Norte 0 -- -- 66
2020-11-04 19:00:00 15.3 12 Nordeste 31 Nordeste 0 -- -- 66
2020-11-04 18:00:00 16 12 Nordeste 31 Norte 0 -- -- 66
2020-11-04 17:00:00 17.8 14 Sudeste 31 Este 0 -- -- 67
2020-11-04 16:00:00 18.4 15 Este 32 Sudeste 0 -- -- 65
2020-11-04 15:00:00 19.2 17 Sudeste 31 Sudeste 0 -- -- 60
2020-11-04 14:00:00 19.1 13 Sudeste 25 Este 0 -- -- 60
2020-11-04 13:00:00 20.2 6 Sudeste 18 Sudeste 0 -- -- 65
2020-11-04 12:00:00 17.8 2 Sudeste 19 Sudeste 2 -- -- 82
2020-11-04 11:00:00 16.7 12 Sudeste 17 Sudeste 0 -- -- 75
2020-11-04 10:00:00 16.9 0 Calma 5 Este 0 -- -- 73
2020-11-04 09:00:00 15.1 0 Calma 8 Sudeste 0 -- -- 81
2020-11-04 08:00:00 13.6 0 Calma 9 Nordeste 0 -- -- 88
2020-11-04 07:00:00 12.9 0 Calma 6 Nordeste 0 -- -- 92
2020-11-04 06:00:00 11.7 0 Calma 5 Sudeste 0 -- -- 94
2020-11-04 05:00:00 13.4 0 Calma 12 Sur 0 -- -- 94
2020-11-04 04:00:00 13.7 3 Este 12 Sudeste 0 -- -- 93
2020-11-04 03:00:00 15.9 10 Sudeste 17 Sudeste 0 -- -- 88
2020-11-04 02:00:00 16 9 Sudeste 21 Sudeste 0 -- -- 87
2020-11-04 01:00:00 16.2 11 Sudeste 18 Sudeste 0 -- -- 87
2020-11-04 00:00:00 15.7 5 Sudeste 18 Sudeste 0 -- -- 89
2020-11-03 23:00:00 16.3 6 Sudeste 10 Sur 0 -- -- 87
2020-11-03 22:00:00 16.6 4 Sudeste 10 Sudeste 0 -- -- 87
2020-11-03 21:00:00 16.9 4 Sudeste 17 Sudeste 0 -- -- 86
2020-11-03 20:00:00 16.7 11 Sudeste 22 Sudeste 0 -- -- 84
2020-11-03 19:00:00 17.1 14 Sudeste 30 Sudeste 0 -- -- 82
2020-11-03 18:00:00 18.3 14 Sudeste 31 Sudeste 0 -- -- 71
2020-11-03 17:00:00 20.3 14 Sudeste 28 Sudeste 0 -- -- 61
2020-11-03 16:00:00 21.2 18 Sudeste 30 Sudeste 0 -- -- 57
2020-11-03 15:00:00 21.3 17 Sudeste 29 Sudeste 0 -- -- 59
2020-11-03 14:00:00 20.7 18 Sudeste 28 Sudeste 0 -- -- 61
2020-11-03 13:00:00 20.3 13 Sudeste 24 Sudeste 0 -- -- 62
2020-11-03 12:00:00 19.8 9 Sudeste 17 Sudeste 0 -- -- 53
2020-11-03 11:00:00 17.6 0 Calma 12 Oeste 0 -- -- 56
2020-11-03 10:00:00 13.2 8 Oeste 12 Noroeste 0 -- -- 72
2020-11-03 09:00:00 10.1 4 Oeste 13 Oeste 0 -- -- 83
2020-11-03 08:00:00 8.9 7 Oeste 11 Oeste 0 -- -- 88
2020-11-03 07:00:00 9.4 7 Oeste 12 Oeste 0 -- -- 87
2020-11-03 06:00:00 9.9 9 Oeste 13 Noroeste 0 -- -- 87
2020-11-03 05:00:00 10.5 5 Oeste 9 Noroeste 0 -- -- 85
2020-11-03 04:00:00 10.7 8 Oeste 14 Oeste 0 -- -- 88
2020-11-03 03:00:00 10.7 5 Oeste 9 Oeste 0 -- -- 88
2020-11-03 02:00:00 11.2 0 Calma 9 Oeste 0 -- -- 87
2020-11-03 01:00:00 12.6 6 Oeste 8 Oeste 0 -- -- 87
2020-11-03 00:00:00 12.8 0 Calma 6 Sudeste 0 -- -- 79
2020-11-02 23:00:00 13.5 2 Sudeste 7 Sudeste 0 -- -- 84
2020-11-02 22:00:00 15.5 0 Calma 6 Este 0 -- -- 84
2020-11-02 21:00:00 17.5 0 Calma 14 Sudeste 0 -- -- 75
2020-11-02 20:00:00 19.5 8 Sudeste 23 Sudeste 0 -- -- 70
2020-11-02 19:00:00 20.3 12 Sudeste 21 Sudeste 0 -- -- 65
2020-11-02 18:00:00 22.6 10 Sudeste 24 Sudeste 0 -- -- 49
2020-11-02 17:00:00 25.8 13 Sudeste 24 Sudeste 0 -- -- 35
2020-11-02 16:00:00 27.1 10 Sudeste 24 Sudeste 0 -- -- 30
2020-11-02 15:00:00 28 7 Sudeste 15 Este 0 -- -- 31
2020-11-02 14:00:00 27.4 0 Calma 10 Oeste 0 -- -- 34
2020-11-02 13:00:00 24.4 5 Oeste 16 Oeste 0 -- -- 40
2020-11-02 12:00:00 21.4 11 Oeste 16 Oeste 0 -- -- 46
2020-11-02 11:00:00 18.2 11 Oeste 17 Oeste 0 -- -- 55
2020-11-02 10:00:00 13.9 8 Oeste 14 Oeste 0 -- -- 68
2020-11-02 09:00:00 10.7 9 Oeste 13 Noroeste 0 -- -- 78
2020-11-02 08:00:00 9.1 6 Oeste 10 Oeste 0 -- -- 82
2020-11-02 07:00:00 10.2 7 Oeste 11 Oeste 0 -- -- 79
2020-11-02 06:00:00 10.2 4 Oeste 12 Oeste 0 -- -- 81
2020-11-02 05:00:00 11.4 8 Oeste 12 Oeste 0 -- -- 77
2020-11-02 04:00:00 11.4 9 Oeste 15 Oeste 0 -- -- 79
2020-11-02 03:00:00 11.7 12 Oeste 15 Oeste 0 -- -- 80
2020-11-02 02:00:00 12.5 9 Oeste 13 Oeste 0 -- -- 78
2020-11-02 01:00:00 13.4 10 Oeste 14 Oeste 0 -- -- 79
2020-11-02 00:00:00 12.7 4 Oeste 7 Oeste 0 -- -- 82
2020-11-01 23:00:00 13.8 0 Calma 6 Nordeste 0 -- -- 75
2020-11-01 22:00:00 14.9 0 Calma 5 Sudeste 0 -- -- 82
2020-11-01 21:00:00 16.3 0 Calma 7 Este 0 -- -- 76
2020-11-01 20:00:00 18.9 4 Sudeste 19 Sudeste 0 -- -- 68
2020-11-01 19:00:00 20.6 13 Sudeste 21 Sudeste 0 -- -- 59
2020-11-01 18:00:00 22.4 12 Sudeste 23 Sudeste 0 -- -- 47
2020-11-01 17:00:00 25.9 10 Sudeste 23 Sudeste 0 -- -- 35
2020-11-01 16:00:00 27.6 10 Sudeste 20 Sudeste 0 -- -- 31
2020-11-01 15:00:00 29.2 3 Sudeste 9 Sur 0 -- -- 30
2020-11-01 14:00:00 28.2 0 Calma 9 Oeste 0 -- -- 33
2020-11-01 13:00:00 25.9 6 Oeste 14 Oeste 0 -- -- 36
2020-11-01 12:00:00 22.8 10 Oeste 19 Oeste 0 -- -- 42
2020-11-01 11:00:00 19.7 11 Oeste 18 Noroeste 0 -- -- 49
2020-11-01 10:00:00 16.3 9 Oeste 16 Oeste 0 -- -- 60
2020-11-01 09:00:00 11.9 13 Oeste 19 Oeste 0 -- -- 71
2020-11-01 08:00:00 10.4 8 Oeste 13 Oeste 0 -- -- 76
2020-11-01 07:00:00 10.8 8 Oeste 14 Oeste 0 -- -- 74
2020-11-01 06:00:00 11.4 10 Oeste 14 Oeste 0 -- -- 72
2020-11-01 05:00:00 11.1 10 Oeste 16 Oeste 0 -- -- 73
2020-11-01 04:00:00 11.5 10 Oeste 16 Oeste 0 -- -- 75
2020-11-01 03:00:00 12.1 10 Oeste 16 Oeste 0 -- -- 73
2020-11-01 02:00:00 12.5 10 Oeste 15 Oeste 0 -- -- 73
2020-11-01 01:00:00 12.8 9 Oeste 14 Oeste 0 -- -- 72
2020-11-01 00:00:00 13.1 8 Oeste 12 Oeste 0 -- -- 73
2020-10-31 23:00:00 14.6 3 Oeste 8 Oeste 0 -- -- 70
2020-10-31 22:00:00 14.9 0 Calma 5 Este 0 -- -- 66
2020-10-31 21:00:00 17.1 0 Calma 12 Sudeste 0 -- -- 61
2020-10-31 20:00:00 18.5 8 Sudeste 19 Sudeste 0 -- -- 55
2020-10-31 19:00:00 20.2 12 Sudeste 19 Sudeste 0 -- -- 47
2020-10-31 18:00:00 23.1 11 Sudeste 18 Sudeste 0 -- -- 36
2020-10-31 17:00:00 25 8 Sudeste 19 Este 0 -- -- 35
2020-10-31 16:00:00 26 9 Sudeste 21 Sudeste 0 -- -- 34
2020-10-31 15:00:00 27.4 4 Sudeste 10 Este 0 -- -- 31
2020-10-31 14:00:00 25 5 Oeste 13 Oeste 0 -- -- 35
2020-10-31 13:00:00 21.9 10 Oeste 17 Oeste 0 -- -- 44
2020-10-31 12:00:00 19.9 9 Oeste 18 Oeste 0 -- -- 49
2020-10-31 11:00:00 16.6 13 Oeste 22 Noroeste 0 -- -- 57
2020-10-31 10:00:00 13.1 9 Oeste 19 Noroeste 0 -- -- 69
2020-10-31 09:00:00 9.2 10 Oeste 18 Oeste 0 -- -- 82
2020-10-31 08:00:00 7.8 10 Oeste 15 Oeste 0 -- -- 87
2020-10-31 07:00:00 7.9 5 Oeste 15 Oeste 0 -- -- 85
2020-10-31 06:00:00 8.5 9 Oeste 16 Oeste 0 -- -- 83
2020-10-31 05:00:00 8.7 8 Oeste 12 Noroeste 0 -- -- 83
2020-10-31 04:00:00 9.2 4 Oeste 12 Oeste 0 -- -- 79
2020-10-31 03:00:00 10.4 10 Oeste 12 Oeste 0 -- -- 77
2020-10-31 02:00:00 10.1 3 Oeste 7 Oeste 0 -- -- 76
2020-10-31 01:00:00 10.7 3 Oeste 7 Noroeste 0 -- -- 73
2020-10-31 00:00:00 12.1 0 Calma 5 Este 0 -- -- 68
2020-10-30 23:00:00 13.1 0 Calma 6 Este 0 -- -- 65
2020-10-30 22:00:00 14 0 Calma 5 Este 0 -- -- 59
2020-10-30 21:00:00 15.6 0 Calma 10 Sur 0 -- -- 51
2020-10-30 20:00:00 18 8 Sudeste 20 Sudeste 0 -- -- 44
2020-10-30 19:00:00 19.9 14 Sudeste 25 Sudeste 0 -- -- 41
2020-10-30 18:00:00 21.9 11 Sudeste 27 Este 0 -- -- 40
2020-10-30 17:00:00 24.6 14 Sudeste 23 Sudeste 0 -- -- 35
2020-10-30 16:00:00 25.8 10 Sudeste 22 Sudeste 0 -- -- 33
2020-10-30 15:00:00 25.8 10 Este 21 Sudeste 0 -- -- 33
2020-10-30 14:00:00 25.3 9 Sudeste 20 Este 0 -- -- 34
2020-10-30 13:00:00 23.4 0 Calma 10 Noroeste 0 -- -- 44
2020-10-30 12:00:00 19.5 6 Oeste 17 Oeste 0 -- -- 54
2020-10-30 11:00:00 16.3 11 Oeste 19 Oeste 0 -- -- 62
2020-10-30 10:00:00 13.2 11 Oeste 16 Oeste 0 -- -- 73
2020-10-30 09:00:00 9.8 10 Oeste 15 Noroeste 0 -- -- 88
2020-10-30 08:00:00 8.5 10 Oeste 14 Noroeste 0 -- -- 93
2020-10-30 07:00:00 8.2 5 Oeste 13 Oeste 0 -- -- 93
2020-10-30 06:00:00 8.8 8 Oeste 12 Oeste 0 -- -- 92
2020-10-30 05:00:00 9.6 9 Oeste 15 Oeste 0 -- -- 91
2020-10-30 04:00:00 10.1 7 Oeste 12 Oeste 0 -- -- 90
2020-10-30 03:00:00 11.1 6 Oeste 11 Oeste 0 -- -- 89
2020-10-30 02:00:00 11.2 9 Oeste 12 Oeste 0 -- -- 90
2020-10-30 01:00:00 11.5 3 Oeste 5 Noroeste 0 -- -- 91
2020-10-30 00:00:00 12 0 Calma 4 Nordeste 0 -- -- 88
2020-10-29 23:00:00 13.4 0 Calma 5 Este 0 -- -- 89
2020-10-29 22:00:00 14.1 0 Calma 4 Este 0 -- -- 85
2020-10-29 21:00:00 16 0 Calma 13 Sudeste 0 -- -- 77
2020-10-29 20:00:00 17.3 7 Sudeste 17 Sudeste 0 -- -- 75
2020-10-29 19:00:00 18.7 10 Sudeste 22 Sudeste 0 -- -- 68
2020-10-29 18:00:00 20.6 10 Sudeste 24 Sudeste 0 -- -- 55
2020-10-29 17:00:00 23.3 12 Sudeste 24 Sudeste 0 -- -- 44
2020-10-29 16:00:00 24.4 11 Sudeste 23 Sudeste 0 -- -- 41
2020-10-29 15:00:00 25 11 Sudeste 21 Sudeste 0 -- -- 41
2020-10-29 14:00:00 24.9 7 Sudeste 15 Sudeste 0 -- -- 42
2020-10-29 13:00:00 22.4 2 Norte 11 Oeste 0 -- -- 47
2020-10-29 12:00:00 20.6 8 Oeste 14 Oeste 0 -- -- 55
2020-10-29 11:00:00 17.9 10 Oeste 19 Oeste 0 -- -- 62
2020-10-29 10:00:00 15.8 9 Oeste 16 Oeste 0 -- -- 71
2020-10-29 09:00:00 12.4 7 Oeste 12 Oeste 0 -- -- 79
2020-10-29 08:00:00 11.6 8 Oeste 17 Noroeste 0 -- -- 81
2020-10-29 07:00:00 11.9 10 Oeste 17 Oeste 0 -- -- 81
2020-10-29 06:00:00 11.7 9 Oeste 20 Oeste 0 -- -- 81
2020-10-29 05:00:00 10.7 5 Oeste 18 Noroeste 0 -- -- 84
2020-10-29 04:00:00 11.6 10 Oeste 16 Oeste 0 -- -- 81
2020-10-29 03:00:00 12.1 9 Oeste 16 Oeste 0 -- -- 81
2020-10-29 02:00:00 12.9 9 Oeste 14 Oeste 0 -- -- 77
2020-10-29 01:00:00 14.1 10 Oeste 14 Oeste 0 -- -- 72
2020-10-29 00:00:00 15.3 9 Oeste 13 Oeste 0 -- -- 70
2020-10-28 23:00:00 16 10 Oeste 14 Oeste 0 -- -- 66
2020-10-28 22:00:00 16.6 10 Oeste 15 Oeste 0 -- -- 64
2020-10-28 21:00:00 16.8 5 Oeste 8 Oeste 0 -- -- 60
2020-10-28 20:00:00 18.2 0 Calma 14 Oeste 0 -- -- 52
2020-10-28 19:00:00 20 5 Oeste 10 Oeste 0 -- -- 50
2020-10-28 18:00:00 22.5 4 Oeste 13 Oeste 0 -- -- 44
2020-10-28 17:00:00 24.5 9 Sudoeste 16 Oeste 0 -- -- 41
2020-10-28 16:00:00 24.4 8 Oeste 17 Noroeste 0 -- -- 41
2020-10-28 15:00:00 23.6 6 Noroeste 19 Oeste 0 -- -- 42
2020-10-28 14:00:00 23.3 6 Noroeste 20 Oeste 0 -- -- 44
2020-10-28 13:00:00 21.5 12 Oeste 21 Oeste 0 -- -- 45
2020-10-28 12:00:00 18.9 10 Oeste 19 Oeste 0 -- -- 50
2020-10-28 11:00:00 17 12 Oeste 23 Noroeste 0 -- -- 55
2020-10-28 10:00:00 13.9 5 Noroeste 22 Noroeste 0 -- -- 58
2020-10-28 09:00:00 9.8 12 Oeste 19 Oeste 0 -- -- 66
2020-10-28 08:00:00 6.9 11 Oeste 14 Oeste 0 -- -- 71
2020-10-28 07:00:00 8.2 10 Oeste 15 Oeste 0 -- -- 68
2020-10-28 06:00:00 8.6 10 Oeste 14 Noroeste 0 -- -- 67
2020-10-28 05:00:00 9 10 Oeste 16 Noroeste 0 -- -- 65
2020-10-28 04:00:00 10.1 9 Oeste 13 Oeste 0 -- -- 61
2020-10-28 03:00:00 10.2 9 Oeste 19 Oeste 0 -- -- 60
2020-10-28 02:00:00 11.2 12 Oeste 18 Oeste 0 -- -- 56
2020-10-28 01:00:00 11.9 9 Oeste 19 Oeste 0 -- -- 54
2020-10-28 00:00:00 12.5 9 Oeste 19 Oeste 0 -- -- 51
2020-10-27 23:00:00 13.9 6 Oeste 19 Sudoeste 0 -- -- 45
2020-10-27 22:00:00 15 13 Oeste 20 Oeste 0 -- -- 44
2020-10-27 21:00:00 14.5 6 Oeste 15 Oeste 0 -- -- 42
2020-10-27 20:00:00 16.2 5 Oeste 17 Norte 0 -- -- 39
2020-10-27 19:00:00 18 8 Norte 15 Norte 0 -- -- 36
2020-10-27 18:00:00 18.6 0 Calma 9 Oeste 0 -- -- 33
2020-10-27 17:00:00 21.2 7 Oeste 15 Oeste 0 -- -- 30
2020-10-27 16:00:00 21.2 5 Oeste 17 Oeste 0 -- -- 31
2020-10-27 15:00:00 20.7 5 Oeste 20 Sudoeste 0 -- -- 34
2020-10-27 14:00:00 19.8 2 Nordeste 19 Oeste 0.1 -- -- 35
2020-10-27 13:00:00 18.5 6 Oeste 15 Sudoeste 0 -- -- 39
2020-10-27 12:00:00 16.8 7 Oeste 15 Oeste 0 -- -- 45
2020-10-27 11:00:00 14.3 7 Oeste 13 Oeste 0 -- -- 53
2020-10-27 10:00:00 11.7 10 Oeste 15 Oeste 0 -- -- 61
2020-10-27 09:00:00 8.3 8 Oeste 11 Oeste 0 -- -- 71
2020-10-27 08:00:00 6.5 4 Oeste 6 Noroeste 0 -- -- 77
2020-10-27 07:00:00 6 4 Oeste 11 Oeste 0 -- -- 74
2020-10-27 06:00:00 6.7 5 Oeste 14 Oeste 0 -- -- 72
2020-10-27 05:00:00 7.7 8 Oeste 15 Noroeste 0 -- -- 68
2020-10-27 04:00:00 8.4 10 Oeste 15 Oeste 0 -- -- 65
2020-10-27 03:00:00 8.2 9 Oeste 16 Oeste 0 -- -- 65
2020-10-27 02:00:00 8.5 6 Oeste 17 Oeste 0 -- -- 63
2020-10-27 01:00:00 8.4 9 Oeste 13 Oeste 0 -- -- 63
2020-10-27 00:00:00 9.6 9 Oeste 15 Oeste 0 -- -- 58